Time;durP1;ratioP1;P1;durP2;ratioP2;P2;SDS_P1;SDS_P2;PMS_P1;PMS_P2;Temp;Humidity;BMP_temperature;BMP_pressure;BME280_temperature;BME280_humidity;BME280_pressure;Samples;Min_cycle;Max_cycle;Signal;HPM_P1;HPM_P2
2022/09/21 00:00:59;;;;;;;6.27;4.20;;;;;;;;;;5046220;27;86903;-64
2022/09/21 00:03:27;;;;;;;6.80;3.70;;;;;;;;;;5063773;27;86309;-62
2022/09/21 00:06:02;;;;;;;6.87;4.23;;;;;;;;;;5026490;28;89103;-63
2022/09/21 00:08:30;;;;;;;8.00;3.73;;;;;;;;;;5060636;27;88939;-63
2022/09/21 00:11:00;;;;;;;8.43;4.50;;;;;;;;;;5066836;27;87982;-63
2022/09/21 00:13:29;;;;;;;8.27;3.40;;;;;;;;;;5067030;27;87077;-64
2022/09/21 00:15:57;;;;;;;4.90;3.43;;;;;;;;;;5067047;27;89052;-64
2022/09/21 00:18:26;;;;;;;5.90;3.67;;;;;;;;;;5058268;27;88979;-64
2022/09/21 00:20:55;;;;;;;7.33;3.23;;;;;;;;;;5066229;28;86919;-65
2022/09/21 00:23:23;;;;;;;6.13;3.83;;;;;;;;;;5057061;27;86711;-65
2022/09/21 00:25:52;;;;;;;5.50;3.90;;;;;;;;;;5047323;28;89534;-64
2022/09/21 00:28:22;;;;;;;5.00;3.77;;;;;;;;;;5061873;27;89068;-64
2022/09/21 00:30:50;;;;;;;4.23;2.70;;;;;;;;;;5066729;27;86876;-64
2022/09/21 00:33:19;;;;;;;4.50;2.93;;;;;;;;;;5052832;27;87012;-65
2022/09/21 00:35:47;;;;;;;6.50;2.67;;;;;;;;;;5042271;27;89795;-64
2022/09/21 00:38:16;;;;;;;3.93;2.53;;;;;;;;;;5058156;27;90193;-64
2022/09/21 00:40:44;;;;;;;3.10;2.50;;;;;;;;;;5054645;27;87149;-64
2022/09/21 00:43:13;;;;;;;3.87;2.70;;;;;;;;;;5043080;27;87158;-64
2022/09/21 00:45:43;;;;;;;3.70;2.70;;;;;;;;;;5042788;28;89381;-64
2022/09/21 00:48:12;;;;;;;3.77;2.50;;;;;;;;;;5042923;27;89039;-64
2022/09/21 00:50:41;;;;;;;2.67;2.40;;;;;;;;;;5040242;28;86994;-64
2022/09/21 00:53:10;;;;;;;3.10;2.60;;;;;;;;;;5046516;27;86198;-64
2022/09/21 00:55:40;;;;;;;5.37;2.00;;;;;;;;;;5042720;28;92386;-65
2022/09/21 00:58:09;;;;;;;3.50;1.93;;;;;;;;;;5042323;27;91167;-65
2022/09/21 01:00:39;;;;;;;3.30;2.00;;;;;;;;;;5042215;28;87850;-64
2022/09/21 01:03:09;;;;;;;4.97;1.90;;;;;;;;;;5060884;27;87112;-64
2022/09/21 01:05:37;;;;;;;5.73;1.80;;;;;;;;;;5062276;27;92231;-65
2022/09/21 01:08:06;;;;;;;2.40;1.90;;;;;;;;;;5062345;27;89017;-64
2022/09/21 01:10:38;;;;;;;3.07;2.13;;;;;;;;;;5062074;27;87017;-64
2022/09/21 01:13:08;;;;;;;2.30;1.73;;;;;;;;;;5061405;27;87003;-64
2022/09/21 01:15:39;;;;;;;2.13;1.70;;;;;;;;;;5061964;27;89133;-64
2022/09/21 01:18:12;;;;;;;4.07;1.70;;;;;;;;;;5061644;27;89475;-65
2022/09/21 01:20:51;;;;;;;5.87;2.27;;;;;;;;;;5061972;27;87716;-64
2022/09/21 01:23:49;;;;;;;2.30;1.70;;;;;;;;;;5054035;27;87052;-65
2022/09/21 01:26:21;;;;;;;4.27;1.90;;;;;;;;;;4958701;28;90129;-64
2022/09/21 01:29:02;;;;;;;2.70;1.53;;;;;;;;;;5041554;27;89841;-64
2022/09/21 01:31:32;;;;;;;2.60;1.97;;;;;;;;;;5062493;27;87049;-64
2022/09/21 01:34:02;;;;;;;2.53;1.73;;;;;;;;;;5061825;27;87120;-64
2022/09/21 01:36:31;;;;;;;3.93;1.77;;;;;;;;;;5061229;27;89154;-64
2022/09/21 01:39:01;;;;;;;2.47;2.10;;;;;;;;;;5062148;27;88767;-64
2022/09/21 01:41:30;;;;;;;2.87;1.10;;;;;;;;;;5062058;27;87038;-64
2022/09/21 01:44:00;;;;;;;2.53;1.63;;;;;;;;;;5062394;27;86289;-64
2022/09/21 01:46:31;;;;;;;2.40;1.60;;;;;;;;;;5061419;27;88893;-64
2022/09/21 01:49:02;;;;;;;1.93;1.17;;;;;;;;;;5062184;27;89318;-64
2022/09/21 01:51:30;;;;;;;2.63;1.43;;;;;;;;;;5058972;27;88207;-65
2022/09/21 01:54:00;;;;;;;1.53;1.30;;;;;;;;;;5041635;28;86846;-65
2022/09/21 01:56:28;;;;;;;2.73;1.57;;;;;;;;;;5058917;27;88594;-64
2022/09/21 01:59:00;;;;;;;1.60;1.13;;;;;;;;;;5061687;27;88858;-64
2022/09/21 02:01:30;;;;;;;3.83;1.60;;;;;;;;;;5062895;27;87076;-64
2022/09/21 02:03:59;;;;;;;2.43;1.40;;;;;;;;;;5062385;27;87011;-64
2022/09/21 02:06:28;;;;;;;5.10;1.27;;;;;;;;;;5044670;27;90781;-64
2022/09/21 02:08:56;;;;;;;4.53;1.40;;;;;;;;;;5046376;27;88773;-64
2022/09/21 02:11:25;;;;;;;2.40;1.30;;;;;;;;;;5045140;27;87002;-64
2022/09/21 02:13:53;;;;;;;2.87;1.37;;;;;;;;;;5045077;27;87026;-64
2022/09/21 02:16:33;;;;;;;3.17;1.00;;;;;;;;;;5057645;27;90187;-65
2022/09/21 02:19:08;;;;;;;1.40;1.30;;;;;;;;;;5057432;27;89568;-64
2022/09/21 02:21:39;;;;;;;1.23;0.90;;;;;;;;;;5024344;27;87978;-64
2022/09/21 02:24:09;;;;;;;0.80;0.80;;;;;;;;;;5031615;27;87134;-64
2022/09/21 02:26:40;;;;;;;1.17;1.07;;;;;;;;;;5051015;27;89652;-64
2022/09/21 02:29:11;;;;;;;1.30;1.13;;;;;;;;;;5044568;27;88732;-64
2022/09/21 02:31:42;;;;;;;3.43;1.33;;;;;;;;;;5040790;27;88277;-64
2022/09/21 02:34:11;;;;;;;2.50;1.07;;;;;;;;;;5044680;27;87699;-64
2022/09/21 02:36:42;;;;;;;2.67;1.20;;;;;;;;;;5051567;27;89141;-64
2022/09/21 02:39:11;;;;;;;2.53;1.10;;;;;;;;;;5048082;27;88649;-64
2022/09/21 02:41:41;;;;;;;1.27;1.17;;;;;;;;;;5048400;27;89271;-64
2022/09/21 02:44:10;;;;;;;1.63;0.93;;;;;;;;;;5047096;27;88076;-64
2022/09/21 02:46:39;;;;;;;2.00;1.07;;;;;;;;;;5045421;27;91380;-64
2022/09/21 02:49:09;;;;;;;0.93;0.80;;;;;;;;;;5050426;27;89108;-64
2022/09/21 02:51:38;;;;;;;0.80;0.60;;;;;;;;;;5045641;27;88403;-64
2022/09/21 02:54:07;;;;;;;1.20;0.93;;;;;;;;;;5044622;27;87154;-64
2022/09/21 02:56:35;;;;;;;1.73;1.00;;;;;;;;;;5045700;27;91815;-64
2022/09/21 02:59:04;;;;;;;4.60;1.17;;;;;;;;;;5046294;27;89254;-64
2022/09/21 03:01:32;;;;;;;0.90;0.90;;;;;;;;;;5062997;27;87002;-64
2022/09/21 03:04:01;;;;;;;1.23;0.67;;;;;;;;;;5064510;27;86951;-64
2022/09/21 03:06:30;;;;;;;1.13;1.03;;;;;;;;;;5057580;27;89831;-64
2022/09/21 03:08:59;;;;;;;2.47;1.17;;;;;;;;;;5063745;27;89801;-64
2022/09/21 03:11:27;;;;;;;0.87;0.87;;;;;;;;;;5064610;27;87008;-64
2022/09/21 03:13:56;;;;;;;1.80;1.20;;;;;;;;;;5061336;27;86721;-64
2022/09/21 03:16:25;;;;;;;1.00;0.90;;;;;;;;;;5054110;27;89292;-64
2022/09/21 03:18:53;;;;;;;0.93;0.87;;;;;;;;;;5062845;27;88500;-64
2022/09/21 03:21:21;;;;;;;0.83;0.77;;;;;;;;;;5064041;27;87135;-64
2022/09/21 03:23:51;;;;;;;0.70;0.70;;;;;;;;;;5045273;27;88110;-64
2022/09/21 03:26:21;;;;;;;0.97;0.87;;;;;;;;;;5043931;28;89096;-64
2022/09/21 03:28:49;;;;;;;0.90;0.73;;;;;;;;;;5044961;27;89088;-64
2022/09/21 03:31:17;;;;;;;0.93;0.80;;;;;;;;;;5043397;28;88036;-65
2022/09/21 03:33:45;;;;;;;1.03;0.73;;;;;;;;;;5044156;28;87080;-64
2022/09/21 03:36:14;;;;;;;0.67;0.67;;;;;;;;;;5043922;27;89125;-64
2022/09/21 03:38:43;;;;;;;1.20;0.93;;;;;;;;;;5064388;27;91084;-64
2022/09/21 03:41:14;;;;;;;1.07;0.83;;;;;;;;;;5064618;27;87038;-64
2022/09/21 03:43:42;;;;;;;3.03;1.10;;;;;;;;;;5064778;27;87010;-64
2022/09/21 03:46:10;;;;;;;0.83;0.83;;;;;;;;;;5062516;27;89121;-64
2022/09/21 03:48:41;;;;;;;1.37;0.60;;;;;;;;;;5044089;27;88911;-64
2022/09/21 03:51:09;;;;;;;1.93;0.87;;;;;;;;;;5044011;28;87056;-64
2022/09/21 03:53:37;;;;;;;1.50;0.73;;;;;;;;;;5044491;27;87128;-64
2022/09/21 03:56:06;;;;;;;0.97;0.60;;;;;;;;;;5042794;28;92631;-64
2022/09/21 03:58:35;;;;;;;0.90;0.90;;;;;;;;;;5043373;27;89840;-64
2022/09/21 04:01:03;;;;;;;1.43;1.10;;;;;;;;;;5047514;27;87044;-64
2022/09/21 04:03:32;;;;;;;2.47;1.00;;;;;;;;;;5060608;27;86885;-64
2022/09/21 04:06:00;;;;;;;4.43;1.17;;;;;;;;;;5050228;27;88680;-64
2022/09/21 04:08:28;;;;;;;1.50;0.87;;;;;;;;;;5042958;27;88995;-64
2022/09/21 04:10:57;;;;;;;2.67;1.30;;;;;;;;;;5042677;27;87052;-65
2022/09/21 04:13:25;;;;;;;1.37;1.20;;;;;;;;;;5061079;27;86302;-64
2022/09/21 04:15:54;;;;;;;1.37;1.17;;;;;;;;;;5055391;27;91242;-64
2022/09/21 04:18:23;;;;;;;2.47;1.10;;;;;;;;;;5063596;27;88359;-64
2022/09/21 04:20:51;;;;;;;1.17;0.80;;;;;;;;;;5026146;27;88013;-64
2022/09/21 04:23:19;;;;;;;1.97;1.10;;;;;;;;;;5051259;27;87072;-64
2022/09/21 04:25:47;;;;;;;1.30;0.97;;;;;;;;;;5059904;27;87986;-64
2022/09/21 04:28:16;;;;;;;1.47;1.10;;;;;;;;;;5062670;27;88652;-64
2022/09/21 04:30:44;;;;;;;1.53;1.03;;;;;;;;;;5052351;27;87039;-62
2022/09/21 04:33:14;;;;;;;1.57;1.10;;;;;;;;;;5057011;27;87474;-63
2022/09/21 04:35:42;;;;;;;1.63;1.20;;;;;;;;;;5058139;27;89145;-63
2022/09/21 04:38:12;;;;;;;1.67;1.10;;;;;;;;;;5049505;27;88102;-64
2022/09/21 04:40:40;;;;;;;1.80;0.90;;;;;;;;;;5049992;27;88842;-63
2022/09/21 04:43:09;;;;;;;1.20;0.90;;;;;;;;;;5043575;27;87586;-63
2022/09/21 04:45:38;;;;;;;2.40;1.40;;;;;;;;;;5050066;27;90057;-63
2022/09/21 04:48:06;;;;;;;0.80;0.80;;;;;;;;;;5054668;27;89721;-64
2022/09/21 04:50:36;;;;;;;1.17;0.80;;;;;;;;;;5062717;27;87046;-63
2022/09/21 04:53:04;;;;;;;1.63;1.27;;;;;;;;;;5048095;27;86964;-63
2022/09/21 04:55:32;;;;;;;0.57;0.57;;;;;;;;;;5042388;27;91194;-64
2022/09/21 04:58:01;;;;;;;1.20;1.10;;;;;;;;;;5042984;28;87009;-63
2022/09/21 05:00:29;;;;;;;1.10;1.00;;;;;;;;;;5047485;27;87159;-63
2022/09/21 05:02:57;;;;;;;1.43;0.83;;;;;;;;;;5059306;27;86330;-63
2022/09/21 05:05:26;;;;;;;0.80;0.80;;;;;;;;;;5061423;27;88268;-63
2022/09/21 05:07:55;;;;;;;1.47;1.03;;;;;;;;;;5062242;27;88065;-63
2022/09/21 05:10:22;;;;;;;1.27;1.10;;;;;;;;;;5060823;27;88000;-64
2022/09/21 05:12:51;;;;;;;0.80;0.70;;;;;;;;;;5063202;27;87109;-64
2022/09/21 05:15:20;;;;;;;2.37;0.80;;;;;;;;;;5059961;27;87982;-64
2022/09/21 05:17:49;;;;;;;2.20;1.23;;;;;;;;;;5062144;27;89002;-64
2022/09/21 05:20:17;;;;;;;1.33;1.07;;;;;;;;;;5062136;27;86915;-64
2022/09/21 05:22:45;;;;;;;2.47;1.10;;;;;;;;;;5061823;27;86984;-63
2022/09/21 05:25:15;;;;;;;1.00;0.80;;;;;;;;;;5060972;27;89285;-63
2022/09/21 05:27:43;;;;;;;2.17;1.27;;;;;;;;;;5061967;27;88584;-64
2022/09/21 05:30:12;;;;;;;1.40;0.83;;;;;;;;;;5059617;27;88625;-64
2022/09/21 05:32:43;;;;;;;0.80;0.80;;;;;;;;;;5061905;27;86935;-64
2022/09/21 05:35:13;;;;;;;0.93;0.83;;;;;;;;;;5059364;27;89796;-64
2022/09/21 05:37:45;;;;;;;0.87;0.70;;;;;;;;;;5060928;27;92377;-64
2022/09/21 05:40:15;;;;;;;0.80;0.63;;;;;;;;;;5062060;27;86807;-64
2022/09/21 05:42:43;;;;;;;2.13;1.03;;;;;;;;;;5061254;27;87027;-64
2022/09/21 05:45:17;;;;;;;0.97;0.67;;;;;;;;;;5060266;27;89146;-64
2022/09/21 05:47:51;;;;;;;1.43;1.30;;;;;;;;;;5061044;27;87519;-64
2022/09/21 05:50:23;;;;;;;1.40;0.77;;;;;;;;;;5060122;27;87359;-64
2022/09/21 05:52:52;;;;;;;0.60;0.60;;;;;;;;;;5059084;27;86250;-64
2022/09/21 05:55:25;;;;;;;1.33;0.77;;;;;;;;;;5060035;27;89117;-65
2022/09/21 05:57:55;;;;;;;1.37;0.70;;;;;;;;;;5058064;27;89139;-65
2022/09/21 06:00:23;;;;;;;0.70;0.70;;;;;;;;;;5058682;27;88246;-65
2022/09/21 06:02:56;;;;;;;5.27;0.93;;;;;;;;;;5050961;27;87113;-65
2022/09/21 06:05:24;;;;;;;1.70;1.10;;;;;;;;;;5043159;27;92658;-65
2022/09/21 06:07:53;;;;;;;1.03;0.90;;;;;;;;;;5042936;27;89062;-65
2022/09/21 06:10:23;;;;;;;3.23;1.17;;;;;;;;;;5046936;27;87093;-67
2022/09/21 06:12:51;;;;;;;2.43;1.40;;;;;;;;;;5053146;27;87089;-65
2022/09/21 06:15:20;;;;;;;1.30;1.00;;;;;;;;;;5044429;27;89064;-66
2022/09/21 06:17:48;;;;;;;0.80;0.77;;;;;;;;;;5061344;27;86552;-66
2022/09/21 06:20:16;;;;;;;1.20;1.00;;;;;;;;;;5060263;27;87068;-67
2022/09/21 06:22:45;;;;;;;0.93;0.90;;;;;;;;;;5060802;27;88199;-66
2022/09/21 06:25:13;;;;;;;0.80;0.80;;;;;;;;;;5060154;27;89536;-66
2022/09/21 06:27:43;;;;;;;1.43;1.10;;;;;;;;;;5051412;27;89951;-66
2022/09/21 06:30:11;;;;;;;2.03;0.90;;;;;;;;;;5040619;27;86887;-65
2022/09/21 06:32:42;;;;;;;0.87;0.80;;;;;;;;;;5045505;27;87034;-66
2022/09/21 06:35:10;;;;;;;0.90;0.90;;;;;;;;;;5050615;27;89097;-65
2022/09/21 06:37:40;;;;;;;1.10;1.00;;;;;;;;;;5040169;27;87366;-62
2022/09/21 06:40:09;;;;;;;1.93;1.40;;;;;;;;;;5040942;27;86753;-62
2022/09/21 06:42:38;;;;;;;1.77;1.40;;;;;;;;;;5041614;27;87120;-62
2022/09/21 06:45:08;;;;;;;5.83;2.07;;;;;;;;;;5043207;27;89065;-62
2022/09/21 06:47:36;;;;;;;2.43;1.93;;;;;;;;;;5053232;27;88958;-63
2022/09/21 06:50:05;;;;;;;1.67;1.27;;;;;;;;;;5048539;27;87998;-63
2022/09/21 06:52:33;;;;;;;2.07;1.73;;;;;;;;;;5056179;27;87115;-63
2022/09/21 06:55:02;;;;;;;1.97;1.47;;;;;;;;;;5053604;27;88934;-63
2022/09/21 06:57:30;;;;;;;3.13;1.67;;;;;;;;;;5048946;27;88625;-62
2022/09/21 06:59:58;;;;;;;3.83;2.37;;;;;;;;;;5045817;27;87104;-62
2022/09/21 07:02:28;;;;;;;6.33;2.23;;;;;;;;;;5061069;27;87071;-64
2022/09/21 07:04:57;;;;;;;3.13;2.43;;;;;;;;;;5064098;27;88877;-63
2022/09/21 07:07:25;;;;;;;5.63;3.00;;;;;;;;;;5063630;27;87731;-63
2022/09/21 07:09:53;;;;;;;3.43;2.50;;;;;;;;;;5057288;27;87130;-64
2022/09/21 07:12:42;;;;;;;2.97;2.00;;;;;;;;;;5063786;27;86941;-64
2022/09/21 07:15:12;;;;;;;2.57;2.07;;;;;;;;;;5062959;27;90012;-64
2022/09/21 07:17:43;;;;;;;2.27;2.07;;;;;;;;;;5063144;27;89728;-63
2022/09/21 07:20:19;;;;;;;2.93;1.87;;;;;;;;;;5064142;27;86977;-63
2022/09/21 07:22:47;;;;;;;3.10;2.23;;;;;;;;;;5064211;27;86737;-62
2022/09/21 07:25:15;;;;;;;4.47;2.40;;;;;;;;;;5062663;27;89779;-63
2022/09/21 07:27:44;;;;;;;3.93;2.33;;;;;;;;;;5062637;27;88634;-62
2022/09/21 07:30:12;;;;;;;3.53;2.40;;;;;;;;;;5063459;27;87022;-62
2022/09/21 07:32:42;;;;;;;5.97;2.77;;;;;;;;;;5064542;27;87668;-61
2022/09/21 07:35:10;;;;;;;5.37;2.93;;;;;;;;;;5063627;27;88846;-63
2022/09/21 07:37:39;;;;;;;5.63;3.43;;;;;;;;;;5062887;27;88546;-61
2022/09/21 07:40:07;;;;;;;3.67;2.60;;;;;;;;;;5063144;27;87946;-61
2022/09/21 07:42:36;;;;;;;5.00;3.20;;;;;;;;;;5062828;27;86957;-61
2022/09/21 07:45:04;;;;;;;5.50;3.57;;;;;;;;;;5062786;27;88744;-62
2022/09/21 07:47:32;;;;;;;4.93;3.30;;;;;;;;;;5063223;27;87748;-61
2022/09/21 07:50:02;;;;;;;5.20;3.93;;;;;;;;;;5062824;27;87078;-62
2022/09/21 07:52:30;;;;;;;5.80;3.57;;;;;;;;;;5061499;27;87526;-62
2022/09/21 07:54:58;;;;;;;5.13;3.80;;;;;;;;;;5062242;27;88648;-65
2022/09/21 08:00:14;;;;;;;4.93;2.80;;;;;;;;;;5061376;27;87294;-64
2022/09/21 08:02:42;;;;;;;4.27;3.20;;;;;;;;;;5053822;27;87108;-64
2022/09/21 08:05:16;;;;;;;7.40;3.17;;;;;;;;;;5032707;27;90317;-64
2022/09/21 08:07:44;;;;;;;6.17;3.37;;;;;;;;;;5045540;27;89379;-64
2022/09/21 08:10:12;;;;;;;4.07;2.97;;;;;;;;;;5052289;27;87702;-64
2022/09/21 08:12:43;;;;;;;4.60;2.80;;;;;;;;;;5064126;27;87078;-65
2022/09/21 08:15:13;;;;;;;4.47;3.20;;;;;;;;;;5063049;28;87089;-66
2022/09/21 08:18:01;;;;;;;5.60;3.07;;;;;;;;;;5060190;27;89948;-62
2022/09/21 08:20:31;;;;;;;4.20;2.87;;;;;;;;;;5071050;27;86819;-62
2022/09/21 08:22:59;;;;;;;6.13;3.30;;;;;;;;;;5073695;27;86024;-62
2022/09/21 08:25:29;;;;;;;3.93;3.07;;;;;;;;;;5068979;27;88343;-62
2022/09/21 08:28:00;;;;;;;4.00;2.73;;;;;;;;;;5075651;27;88632;-64
2022/09/21 08:30:33;;;;;;;4.73;3.00;;;;;;;;;;5029383;28;88014;-61
2022/09/21 08:33:02;;;;;;;3.90;3.10;;;;;;;;;;5035897;28;86753;-61
2022/09/21 08:35:32;;;;;;;5.53;2.43;;;;;;;;;;5045906;28;91457;-62
2022/09/21 08:38:00;;;;;;;6.00;3.47;;;;;;;;;;5042656;28;88648;-63
2022/09/21 08:40:29;;;;;;;3.17;2.43;;;;;;;;;;5043174;27;87074;-62
2022/09/21 08:42:58;;;;;;;4.80;3.10;;;;;;;;;;5042375;27;87050;-62
2022/09/21 08:45:27;;;;;;;3.53;2.33;;;;;;;;;;5043404;28;88925;-63
2022/09/21 08:47:56;;;;;;;2.87;2.23;;;;;;;;;;5043866;28;88897;-61
2022/09/21 08:50:36;;;;;;;4.97;2.50;;;;;;;;;;5043213;28;86789;-62
2022/09/21 08:53:06;;;;;;;2.27;2.00;;;;;;;;;;5043408;28;86898;-63
2022/09/21 08:55:34;;;;;;;3.23;2.20;;;;;;;;;;5042167;28;90024;-64
2022/09/21 08:58:02;;;;;;;3.63;2.40;;;;;;;;;;5042420;28;88635;-63
2022/09/21 09:00:32;;;;;;;2.93;2.40;;;;;;;;;;5041959;28;87037;-62
2022/09/21 09:03:08;;;;;;;2.27;2.00;;;;;;;;;;5045266;27;87083;-62
2022/09/21 09:05:41;;;;;;;2.47;1.70;;;;;;;;;;5042379;28;88968;-62
2022/09/21 09:08:13;;;;;;;3.73;2.63;;;;;;;;;;5042306;28;87338;-62
2022/09/21 09:10:42;;;;;;;2.63;1.50;;;;;;;;;;5042046;28;86958;-62
2022/09/21 09:13:16;;;;;;;4.10;2.10;;;;;;;;;;5042975;28;86132;-62
2022/09/21 09:15:48;;;;;;;4.63;2.10;;;;;;;;;;5042219;28;89191;-62
2022/09/21 09:18:19;;;;;;;4.93;1.90;;;;;;;;;;5043416;27;87821;-62
2022/09/21 09:20:48;;;;;;;3.07;1.60;;;;;;;;;;5042566;27;87805;-62
2022/09/21 09:23:19;;;;;;;2.33;1.20;;;;;;;;;;5042417;28;86988;-62
2022/09/21 09:25:49;;;;;;;1.93;1.10;;;;;;;;;;5050783;27;89397;-62
2022/09/21 09:28:20;;;;;;;1.73;1.10;;;;;;;;;;5043785;27;87711;-62
2022/09/21 09:30:50;;;;;;;3.00;1.03;;;;;;;;;;5043008;28;86989;-62
2022/09/21 09:33:20;;;;;;;0.70;0.60;;;;;;;;;;5042662;27;86750;-63
2022/09/21 09:35:50;;;;;;;1.80;1.57;;;;;;;;;;5049980;27;89053;-62
2022/09/21 09:38:19;;;;;;;1.00;0.70;;;;;;;;;;5042419;28;88328;-62
2022/09/21 09:40:50;;;;;;;3.47;1.23;;;;;;;;;;5047782;27;87366;-62
2022/09/21 09:43:20;;;;;;;1.60;0.90;;;;;;;;;;5046627;27;87074;-62
2022/09/21 09:45:51;;;;;;;2.17;1.10;;;;;;;;;;5041618;28;89966;-62
2022/09/21 09:48:22;;;;;;;2.33;1.30;;;;;;;;;;5041973;28;90074;-63
2022/09/21 09:50:52;;;;;;;1.97;1.30;;;;;;;;;;5043657;27;87039;-63
2022/09/21 09:53:21;;;;;;;2.13;1.60;;;;;;;;;;5052582;27;87936;-62
2022/09/21 09:55:50;;;;;;;2.07;1.40;;;;;;;;;;5041686;28;89191;-62
2022/09/21 09:58:19;;;;;;;2.60;1.60;;;;;;;;;;5041429;28;89115;-65
2022/09/21 10:00:47;;;;;;;3.97;2.07;;;;;;;;;;5046773;27;88609;-65
2022/09/21 10:03:16;;;;;;;4.13;2.37;;;;;;;;;;5055276;27;86296;-64
2022/09/21 10:05:45;;;;;;;2.03;1.50;;;;;;;;;;5061170;27;89423;-63
2022/09/21 10:08:30;;;;;;;1.63;1.20;;;;;;;;;;5061470;27;90898;-63
2022/09/21 10:10:59;;;;;;;4.20;1.93;;;;;;;;;;5061383;27;87973;-63
2022/09/21 10:13:28;;;;;;;4.10;1.40;;;;;;;;;;5061491;27;87532;-63
2022/09/21 10:15:56;;;;;;;2.93;1.47;;;;;;;;;;5061428;27;89181;-62
2022/09/21 10:18:25;;;;;;;1.30;1.20;;;;;;;;;;5061560;27;88216;-62
2022/09/21 10:21:01;;;;;;;2.17;1.17;;;;;;;;;;5060238;27;87012;-62
2022/09/21 10:23:32;;;;;;;1.40;1.07;;;;;;;;;;5059831;27;87044;-62
2022/09/21 10:26:01;;;;;;;2.13;1.40;;;;;;;;;;5060617;27;89329;-62
2022/09/21 10:28:29;;;;;;;1.93;1.40;;;;;;;;;;5062639;27;91282;-62
2022/09/21 10:31:25;;;;;;;3.90;1.70;;;;;;;;;;5064276;27;86939;-61
2022/09/21 10:33:55;;;;;;;2.67;1.87;;;;;;;;;;4998687;28;87125;-61
2022/09/21 10:36:30;;;;;;;4.80;2.03;;;;;;;;;;5058244;27;89955;-62
2022/09/21 10:39:12;;;;;;;5.00;2.67;;;;;;;;;;5062308;27;89914;-61
2022/09/21 10:41:40;;;;;;;1.70;1.30;;;;;;;;;;5065489;27;87065;-61
2022/09/21 10:44:12;;;;;;;3.80;1.83;;;;;;;;;;5065195;27;86988;-62
2022/09/21 10:46:40;;;;;;;1.73;1.63;;;;;;;;;;5064928;27;89088;-61
2022/09/21 10:49:13;;;;;;;3.67;2.00;;;;;;;;;;5065169;27;87725;-62
2022/09/21 10:51:41;;;;;;;2.47;1.83;;;;;;;;;;5064963;27;88013;-62
2022/09/21 10:54:10;;;;;;;2.87;1.80;;;;;;;;;;5065690;27;86351;-62
2022/09/21 10:56:39;;;;;;;1.97;1.53;;;;;;;;;;5064671;27;88785;-61
2022/09/21 10:59:11;;;;;;;1.77;1.00;;;;;;;;;;5064686;27;90890;-62
2022/09/21 11:01:43;;;;;;;2.70;1.77;;;;;;;;;;5063507;27;87843;-62
2022/09/21 11:04:12;;;;;;;1.50;1.30;;;;;;;;;;5065106;27;87076;-62
2022/09/21 11:06:41;;;;;;;5.13;1.80;;;;;;;;;;5064573;27;88687;-62
2022/09/21 11:09:10;;;;;;;0.80;0.80;;;;;;;;;;5064143;27;88023;-62
2022/09/21 11:11:43;;;;;;;1.73;1.23;;;;;;;;;;5064810;27;87026;-62
2022/09/21 11:14:15;;;;;;;1.93;1.17;;;;;;;;;;5065114;27;87081;-62
2022/09/21 11:16:46;;;;;;;2.27;1.40;;;;;;;;;;5064633;27;91845;-61
2022/09/21 11:19:16;;;;;;;2.00;0.80;;;;;;;;;;5065174;27;88346;-63
2022/09/21 11:21:45;;;;;;;0.97;0.70;;;;;;;;;;5064840;27;86829;-62
2022/09/21 11:24:15;;;;;;;1.57;1.20;;;;;;;;;;5064978;27;86885;-63
2022/09/21 11:26:47;;;;;;;0.93;0.90;;;;;;;;;;5063969;27;89470;-61
2022/09/21 11:29:16;;;;;;;0.80;0.77;;;;;;;;;;5064339;27;89512;-64
2022/09/21 11:31:47;;;;;;;1.07;0.93;;;;;;;;;;5052672;27;86901;-62
2022/09/21 11:34:21;;;;;;;0.83;0.70;;;;;;;;;;5043493;27;86840;-62
2022/09/21 11:36:52;;;;;;;1.63;0.80;;;;;;;;;;5043630;28;89263;-63
2022/09/21 11:39:22;;;;;;;0.70;0.70;;;;;;;;;;5043727;28;91879;-64
2022/09/21 11:41:59;;;;;;;0.27;0.27;;;;;;;;;;5043989;28;87019;-64
2022/09/21 11:44:48;;;;;;;1.07;0.73;;;;;;;;;;5044516;28;86264;-64
2022/09/21 11:47:19;;;;;;;1.10;0.60;;;;;;;;;;5043768;28;89343;-64
2022/09/21 11:49:55;;;;;;;1.00;0.57;;;;;;;;;;5043586;28;87516;-64
2022/09/21 11:52:46;;;;;;;1.30;0.87;;;;;;;;;;5043339;28;87935;-63
2022/09/21 11:55:22;;;;;;;0.70;0.70;;;;;;;;;;5043734;28;86903;-63
2022/09/21 11:57:53;;;;;;;1.00;0.70;;;;;;;;;;5043752;28;89345;-63
2022/09/21 12:00:23;;;;;;;0.83;0.80;;;;;;;;;;5042977;28;88918;-64
2022/09/21 12:03:03;;;;;;;1.70;0.50;;;;;;;;;;5062832;27;87026;-63
2022/09/21 12:05:32;;;;;;;3.23;0.80;;;;;;;;;;5063952;27;86847;-64
2022/09/21 12:08:05;;;;;;;4.73;0.73;;;;;;;;;;5063617;27;89170;-63
2022/09/21 12:10:37;;;;;;;0.60;0.60;;;;;;;;;;5063931;27;88496;-63
2022/09/21 12:13:09;;;;;;;1.10;0.80;;;;;;;;;;5063845;27;86755;-63
2022/09/21 12:15:39;;;;;;;0.43;0.43;;;;;;;;;;5064128;27;86908;-63
2022/09/21 12:18:08;;;;;;;1.80;0.67;;;;;;;;;;5063091;27;88744;-63
2022/09/21 12:20:40;;;;;;;0.77;0.67;;;;;;;;;;5062690;27;90283;-64
2022/09/21 12:23:09;;;;;;;5.07;0.97;;;;;;;;;;5063345;27;86757;-63
2022/09/21 12:25:39;;;;;;;2.40;0.70;;;;;;;;;;5063555;27;86979;-62
2022/09/21 12:28:11;;;;;;;1.00;0.70;;;;;;;;;;5063340;27;89088;-64
2022/09/21 12:30:40;;;;;;;1.13;0.90;;;;;;;;;;5063175;27;88823;-63
2022/09/21 12:33:10;;;;;;;1.23;0.83;;;;;;;;;;5063413;27;86974;-62
2022/09/21 12:35:40;;;;;;;1.10;1.00;;;;;;;;;;5063593;27;86222;-63
2022/09/21 12:38:11;;;;;;;1.77;1.57;;;;;;;;;;5063216;27;90866;-63
2022/09/21 12:40:42;;;;;;;4.67;1.03;;;;;;;;;;5063098;27;88820;-63
2022/09/21 12:43:16;;;;;;;1.33;1.07;;;;;;;;;;5062447;27;88076;-62
2022/09/21 12:45:46;;;;;;;1.47;0.83;;;;;;;;;;5062215;27;86703;-63
2022/09/21 12:48:21;;;;;;;1.10;1.00;;;;;;;;;;5062397;27;89089;-63
2022/09/21 12:50:50;;;;;;;3.60;0.83;;;;;;;;;;5062529;27;90320;-63
2022/09/21 12:53:19;;;;;;;1.27;0.67;;;;;;;;;;5062560;27;86979;-63
2022/09/21 12:55:50;;;;;;;1.47;1.17;;;;;;;;;;5062813;27;87037;-63
2022/09/21 12:58:23;;;;;;;0.87;0.83;;;;;;;;;;5062401;27;89163;-62
2022/09/21 13:00:55;;;;;;;0.60;0.50;;;;;;;;;;5063452;27;89160;-62
2022/09/21 13:03:26;;;;;;;2.87;1.20;;;;;;;;;;5022695;28;86990;-62
2022/09/21 13:06:00;;;;;;;0.87;0.87;;;;;;;;;;5022606;28;86949;-62
2022/09/21 13:08:29;;;;;;;1.97;0.70;;;;;;;;;;5022015;28;89143;-62
2022/09/21 13:10:59;;;;;;;1.73;1.20;;;;;;;;;;5022102;28;90006;-61
2022/09/21 13:13:29;;;;;;;1.90;1.00;;;;;;;;;;5022447;28;87005;-62
2022/09/21 13:15:58;;;;;;;2.67;2.07;;;;;;;;;;5022077;28;87008;-62
2022/09/21 13:18:28;;;;;;;1.17;1.07;;;;;;;;;;5022344;28;89311;-62
2022/09/21 13:21:03;;;;;;;2.47;1.33;;;;;;;;;;5021999;28;88795;-62
2022/09/21 13:23:40;;;;;;;3.17;1.40;;;;;;;;;;5022373;28;86813;-62
2022/09/21 13:26:09;;;;;;;0.97;0.90;;;;;;;;;;5022448;28;86095;-62
2022/09/21 13:29:02;;;;;;;0.80;0.80;;;;;;;;;;5022169;28;89124;-62
2022/09/21 13:31:43;;;;;;;1.43;1.20;;;;;;;;;;5028878;27;88870;-61
2022/09/21 13:34:22;;;;;;;3.70;1.17;;;;;;;;;;5061998;27;88029;-61
2022/09/21 13:37:24;;;;;;;6.40;1.07;;;;;;;;;;5062518;27;87103;-61
2022/09/21 13:39:56;;;;;;;1.60;1.00;;;;;;;;;;4979139;28;88767;-61
2022/09/21 13:42:43;;;;;;;2.00;0.80;;;;;;;;;;4979872;28;88971;-62
2022/09/21 13:45:26;;;;;;;1.13;0.80;;;;;;;;;;5030353;27;87208;-62
2022/09/21 13:47:58;;;;;;;1.23;0.60;;;;;;;;;;5061604;27;86929;-62
2022/09/21 13:50:27;;;;;;;0.70;0.60;;;;;;;;;;5062594;27;89116;-62
2022/09/21 13:52:57;;;;;;;1.30;0.87;;;;;;;;;;5061915;27;92204;-61
2022/09/21 13:55:28;;;;;;;1.27;0.83;;;;;;;;;;5062659;27;87084;-62
2022/09/21 13:57:57;;;;;;;0.53;0.40;;;;;;;;;;5065666;27;87013;-61
2022/09/21 14:00:35;;;;;;;0.50;0.50;;;;;;;;;;5067896;27;89811;-63
2022/09/21 14:03:06;;;;;;;0.90;0.40;;;;;;;;;;5067690;27;89527;-62
2022/09/21 14:05:36;;;;;;;0.83;0.50;;;;;;;;;;5068584;27;87054;-62
2022/09/21 14:08:05;;;;;;;0.80;0.63;;;;;;;;;;5069251;27;86952;-61
2022/09/21 14:10:34;;;;;;;2.93;0.50;;;;;;;;;;5068936;27;88527;-62
2022/09/21 14:13:03;;;;;;;0.87;0.43;;;;;;;;;;5068706;27;88925;-62
2022/09/21 14:15:33;;;;;;;0.47;0.47;;;;;;;;;;5068999;27;86948;-62
2022/09/21 14:18:25;;;;;;;0.60;0.60;;;;;;;;;;5069170;27;86181;-61
2022/09/21 14:21:16;;;;;;;0.70;0.60;;;;;;;;;;5048519;27;88901;-62
2022/09/21 14:24:03;;;;;;;1.03;0.70;;;;;;;;;;5068661;27;89960;-61
2022/09/21 14:26:33;;;;;;;0.53;0.43;;;;;;;;;;5068577;27;88120;-61
2022/09/21 14:29:06;;;;;;;0.77;0.67;;;;;;;;;;5068682;27;87040;-61
2022/09/21 14:31:35;;;;;;;0.93;0.50;;;;;;;;;;5064898;27;88343;-62
2022/09/21 14:34:03;;;;;;;0.33;0.27;;;;;;;;;;5052610;27;88893;-61
2022/09/21 14:36:38;;;;;;;0.93;0.47;;;;;;;;;;5067936;27;89080;-62
2022/09/21 14:39:07;;;;;;;3.33;0.73;;;;;;;;;;5068675;27;86922;-62
2022/09/21 14:41:38;;;;;;;0.40;0.40;;;;;;;;;;5067738;27;89103;-63
2022/09/21 14:44:06;;;;;;;2.23;0.77;;;;;;;;;;5067959;27;89152;-63
2022/09/21 14:46:52;;;;;;;0.67;0.30;;;;;;;;;;5069752;27;86962;-62
2022/09/21 14:49:31;;;;;;;0.70;0.50;;;;;;;;;;5011625;27;87086;-62
2022/09/21 14:52:04;;;;;;;0.63;0.40;;;;;;;;;;5060813;27;88566;-62
2022/09/21 14:54:44;;;;;;;1.53;0.73;;;;;;;;;;5072268;27;89020;-61
2022/09/21 14:57:34;;;;;;;2.50;0.40;;;;;;;;;;5080243;27;86868;-61
2022/09/21 15:00:07;;;;;;;0.50;0.50;;;;;;;;;;5080796;27;86926;-61
2022/09/21 15:02:36;;;;;;;0.50;0.50;;;;;;;;;;5079912;27;87850;-63
2022/09/21 15:05:14;;;;;;;1.03;0.30;;;;;;;;;;5073809;27;87922;-62
2022/09/21 15:13:41;;;;;;;9.80;5.30;;;;;;;;;;5068051;27;88990;-62